createdAt,value
2023-07-17T00:02:05.894Z,100.00
2023-07-17T00:04:35.370Z,100.00
2023-07-17T00:07:03.179Z,100.00
2023-07-17T00:09:31.067Z,100.00
2023-07-17T00:11:57.944Z,100.00
2023-07-17T00:14:25.794Z,100.00
2023-07-17T00:16:53.733Z,100.00
2023-07-17T00:19:21.652Z,100.00
2023-07-17T00:21:50.814Z,100.00
2023-07-17T00:24:18.653Z,100.00
2023-07-17T00:26:46.484Z,100.00
2023-07-17T00:29:25.473Z,100.00
2023-07-17T00:31:53.402Z,100.00
2023-07-17T00:34:21.354Z,100.00
2023-07-17T00:36:51.267Z,100.00
2023-07-17T00:39:20.621Z,100.00
2023-07-17T00:41:48.754Z,100.00
2023-07-17T00:44:16.606Z,100.00
2023-07-17T00:46:44.571Z,100.00
2023-07-17T00:49:14.232Z,100.00
2023-07-17T00:51:42.225Z,100.00
2023-07-17T00:54:11.428Z,100.00
2023-07-17T00:56:39.324Z,100.00
2023-07-17T00:59:07.146Z,100.00
2023-07-17T01:01:35.099Z,100.00
2023-07-17T01:04:03.839Z,100.00
2023-07-17T01:06:31.861Z,100.00
2023-07-17T01:08:59.796Z,100.00
2023-07-17T01:11:30.237Z,100.00
2023-07-17T01:13:58.109Z,100.00
2023-07-17T01:16:26.040Z,100.00
2023-07-17T01:18:53.935Z,100.00
2023-07-17T01:21:26.831Z,100.00
2023-07-17T01:23:57.944Z,100.00
2023-07-17T01:26:25.844Z,100.00
2023-07-17T01:28:53.741Z,100.00
2023-07-17T01:31:21.805Z,100.00
2023-07-17T01:33:50.160Z,100.00
2023-07-17T01:36:19.070Z,100.00
2023-07-17T01:38:46.911Z,100.00
2023-07-17T01:41:16.282Z,100.00
2023-07-17T01:43:44.330Z,100.00
2023-07-17T01:46:12.201Z,100.00
2023-07-17T01:48:40.132Z,100.00
2023-07-17T01:51:08.004Z,100.00
2023-07-17T01:53:35.849Z,100.00
2023-07-17T01:56:03.687Z,100.00
2023-07-17T01:58:33.012Z,100.00
2023-07-17T02:01:00.882Z,100.00
2023-07-17T02:03:28.856Z,100.00
2023-07-17T02:05:56.867Z,100.00
2023-07-17T02:08:25.640Z,100.00
2023-07-17T02:10:54.024Z,100.00
2023-07-17T02:13:21.820Z,100.00
2023-07-17T02:15:51.099Z,100.00
2023-07-17T02:18:18.953Z,100.00
2023-07-17T02:20:46.840Z,100.00
2023-07-17T02:23:14.701Z,100.00
2023-07-17T02:25:43.652Z,100.00
2023-07-17T02:28:11.668Z,100.00
2023-07-17T02:30:39.496Z,100.00
2023-07-17T02:33:08.825Z,100.00
2023-07-17T02:35:36.744Z,100.00
2023-07-17T02:38:04.620Z,100.00
2023-07-17T02:40:32.494Z,100.00
2023-07-17T02:43:02.650Z,100.00
2023-07-17T02:45:30.471Z,100.00
2023-07-17T02:47:59.425Z,100.00
2023-07-17T02:50:28.706Z,100.00
2023-07-17T02:52:57.043Z,100.00
2023-07-17T02:55:25.146Z,100.00
2023-07-17T02:57:53.025Z,100.00
2023-07-17T03:00:21.151Z,100.00
2023-07-17T03:02:49.906Z,100.00
2023-07-17T03:05:18.149Z,100.00
2023-07-17T03:07:47.991Z,100.00
2023-07-17T03:10:16.056Z,100.00
2023-07-17T03:12:44.101Z,100.00
2023-07-17T03:15:13.482Z,100.00
2023-07-17T03:17:41.370Z,100.00
2023-07-17T03:20:10.973Z,100.00
2023-07-17T03:22:39.732Z,100.00
2023-07-17T03:25:09.411Z,100.00
2023-07-17T03:27:37.302Z,100.00
2023-07-17T03:30:05.816Z,100.00
2023-07-17T03:32:34.469Z,100.00
2023-07-17T03:35:02.380Z,100.00
2023-07-17T03:37:31.291Z,100.00
2023-07-17T03:39:59.218Z,100.00
2023-07-17T03:42:28.574Z,100.00
2023-07-17T03:44:56.641Z,100.00
2023-07-17T03:47:26.887Z,100.00
2023-07-17T03:49:55.242Z,100.00
2023-07-17T03:52:23.668Z,100.00
2023-07-17T03:54:51.759Z,100.00
2023-07-17T03:57:20.409Z,100.00
2023-07-17T03:59:52.013Z,100.00
2023-07-17T04:02:23.947Z,100.00
2023-07-17T04:04:53.900Z,100.00
2023-07-17T04:07:24.284Z,100.00
2023-07-17T04:09:52.960Z,100.00
2023-07-17T04:12:21.662Z,100.00
2023-07-17T04:14:50.901Z,100.00
2023-07-17T04:17:18.906Z,100.00
2023-07-17T04:19:46.772Z,100.00
2023-07-17T04:22:14.590Z,100.00
2023-07-17T04:24:42.427Z,100.00
2023-07-17T04:27:10.246Z,100.00
2023-07-17T04:29:38.488Z,100.00
2023-07-17T04:32:09.708Z,100.00
2023-07-17T04:34:38.094Z,100.00
2023-07-17T04:37:05.950Z,100.00
2023-07-17T04:39:34.229Z,100.00
2023-07-17T04:42:05.276Z,100.00
2023-07-17T04:44:33.476Z,100.00
2023-07-17T04:47:03.516Z,100.00
2023-07-17T04:49:32.727Z,100.00
2023-07-17T04:52:00.626Z,100.00
2023-07-17T04:54:29.227Z,100.00
2023-07-17T04:56:57.504Z,100.00
2023-07-17T04:59:26.288Z,100.00
2023-07-17T05:01:54.584Z,100.00
2023-07-17T05:04:24.653Z,100.00
2023-07-17T05:06:54.448Z,100.00
2023-07-17T05:09:22.261Z,100.00
2023-07-17T05:11:51.003Z,100.00
2023-07-17T05:14:18.992Z,100.00
2023-07-17T05:16:46.889Z,100.00
2023-07-17T05:19:14.819Z,100.00
2023-07-17T05:21:43.674Z,100.00
2023-07-17T05:24:14.440Z,100.00
2023-07-17T05:26:43.916Z,100.00
2023-07-17T05:29:13.404Z,100.00
2023-07-17T05:31:44.401Z,100.00
2023-07-17T05:34:12.560Z,100.00
2023-07-17T05:36:40.562Z,100.00
2023-07-17T05:39:08.528Z,100.00
2023-07-17T05:41:37.738Z,100.00
2023-07-17T05:44:05.881Z,100.00
2023-07-17T05:46:33.750Z,100.00
2023-07-17T05:49:01.634Z,100.00
2023-07-17T05:51:29.535Z,100.00
2023-07-17T05:53:57.627Z,100.00
2023-07-17T05:56:25.525Z,100.00
2023-07-17T05:58:55.183Z,100.00
2023-07-17T06:01:23.156Z,100.00
2023-07-17T06:03:51.547Z,100.00
2023-07-17T06:06:19.418Z,100.00
2023-07-17T06:08:47.252Z,100.00
2023-07-17T06:11:15.293Z,100.00
2023-07-17T06:13:43.383Z,99.87
2023-07-17T06:16:12.836Z,94.89
2023-07-17T06:18:40.732Z,92.96
2023-07-17T06:21:08.621Z,91.65
2023-07-17T06:23:36.424Z,96.83
2023-07-17T06:26:04.805Z,95.07
2023-07-17T06:28:32.642Z,93.89
2023-07-17T06:31:00.853Z,90.06
2023-07-17T06:33:30.032Z,88.52
2023-07-17T06:35:57.868Z,85.76
2023-07-17T06:38:25.801Z,85.13
2023-07-17T06:40:54.493Z,82.63
2023-07-17T06:43:22.409Z,80.83
2023-07-17T06:45:50.362Z,76.10
2023-07-17T06:48:18.434Z,73.73
2023-07-17T06:50:48.148Z,72.93
2023-07-17T06:53:16.008Z,72.88
2023-07-17T06:55:43.852Z,72.44
2023-07-17T06:58:11.688Z,70.77
2023-07-17T07:00:39.552Z,69.41
2023-07-17T07:03:07.488Z,70.15
2023-07-17T07:05:35.341Z,67.44
2023-07-17T07:08:04.724Z,67.80
2023-07-17T07:10:32.594Z,68.49
2023-07-17T07:13:00.526Z,66.96
2023-07-17T07:15:28.352Z,67.91
2023-07-17T07:17:56.275Z,66.75
2023-07-17T07:20:24.136Z,66.24
2023-07-17T07:22:51.970Z,64.04
2023-07-17T07:25:21.186Z,62.95
2023-07-17T07:27:48.986Z,59.33
2023-07-17T07:30:17.006Z,60.61
2023-07-17T07:32:44.870Z,58.73
2023-07-17T07:35:12.819Z,59.80
2023-07-17T07:37:41.376Z,58.89
2023-07-17T07:40:12.585Z,60.41
2023-07-17T07:42:41.869Z,60.00
2023-07-17T07:45:10.252Z,57.01
2023-07-17T07:47:38.125Z,56.66
2023-07-17T07:50:06.866Z,57.00
2023-07-17T07:52:34.925Z,58.24
2023-07-17T07:55:02.866Z,55.48
2023-07-17T07:57:30.735Z,56.52
2023-07-17T07:59:59.928Z,56.88
2023-07-17T08:02:27.793Z,55.45
2023-07-17T08:04:55.595Z,54.76
2023-07-17T08:07:23.411Z,54.80
2023-07-17T08:09:52.559Z,55.53
2023-07-17T08:12:20.409Z,56.58
2023-07-17T08:14:48.289Z,56.16
2023-07-17T08:17:17.494Z,54.47
2023-07-17T08:19:45.255Z,55.35
2023-07-17T08:22:13.141Z,55.71
2023-07-17T08:24:41.027Z,52.33
2023-07-17T08:27:08.916Z,54.43
2023-07-17T08:29:36.767Z,54.24
2023-07-17T08:32:05.206Z,53.84
2023-07-17T08:34:34.430Z,55.75
2023-07-17T08:37:02.325Z,55.91
2023-07-17T08:39:30.159Z,53.83
2023-07-17T08:41:58.001Z,55.12
2023-07-17T08:44:26.174Z,55.63
2023-07-17T08:46:54.142Z,52.58
2023-07-17T08:49:22.043Z,53.60
2023-07-17T08:51:51.611Z,54.91
2023-07-17T08:54:28.955Z,55.44
2023-07-17T08:56:57.913Z,53.79
2023-07-17T08:59:26.175Z,53.00
2023-07-17T09:01:54.141Z,54.50
2023-07-17T09:04:24.803Z,53.97
2023-07-17T09:06:54.004Z,53.67
2023-07-17T09:09:22.731Z,53.40
2023-07-17T09:11:53.982Z,53.63
2023-07-17T09:14:23.066Z,54.41
2023-07-17T09:16:50.959Z,53.84
2023-07-17T09:19:18.894Z,53.84
2023-07-17T09:21:46.706Z,53.28
2023-07-17T09:24:15.889Z,51.21
2023-07-17T09:26:43.744Z,50.59
2023-07-17T09:29:11.583Z,50.16
2023-07-17T09:31:39.431Z,52.29
2023-07-17T09:34:14.385Z,52.16
2023-07-17T09:36:42.324Z,53.75
2023-07-17T09:39:11.322Z,51.68
2023-07-17T09:41:40.695Z,52.80
2023-07-17T09:44:09.271Z,52.41
2023-07-17T09:46:37.874Z,52.44
2023-07-17T09:49:07.767Z,52.00
2023-07-17T09:51:37.286Z,52.39
2023-07-17T09:54:06.314Z,51.33
2023-07-17T09:56:34.599Z,51.86
2023-07-17T09:59:13.913Z,52.33
2023-07-17T10:01:43.327Z,51.04
2023-07-17T10:04:11.291Z,51.70
2023-07-17T10:06:39.366Z,51.73
2023-07-17T10:09:07.238Z,52.86
2023-07-17T10:11:35.036Z,54.13
2023-07-17T10:14:03.808Z,52.30
2023-07-17T10:16:32.986Z,54.04
2023-07-17T10:19:01.574Z,51.53
2023-07-17T10:21:29.841Z,52.44
2023-07-17T10:24:02.145Z,49.37
2023-07-17T10:26:30.068Z,50.14
2023-07-17T10:28:58.342Z,44.92
2023-07-17T10:31:26.468Z,43.86
2023-07-17T10:33:56.962Z,43.87
2023-07-17T10:36:38.786Z,42.22
2023-07-17T10:39:06.779Z,44.86
2023-07-17T10:41:34.761Z,43.73
2023-07-17T10:44:18.009Z,45.02
2023-07-17T10:46:47.542Z,42.30
2023-07-17T10:49:17.685Z,42.38
2023-07-17T10:51:46.408Z,40.79
2023-07-17T10:54:14.734Z,41.42
2023-07-17T10:56:44.042Z,40.85
2023-07-17T10:59:11.888Z,39.36
2023-07-17T11:01:39.793Z,40.45
2023-07-17T11:04:08.750Z,41.72
2023-07-17T11:06:38.088Z,43.62
2023-07-17T11:09:06.205Z,40.82
2023-07-17T11:11:34.081Z,41.79
2023-07-17T11:14:02.105Z,41.91
2023-07-17T11:16:30.210Z,42.81
2023-07-17T11:18:58.404Z,44.54
2023-07-17T11:21:26.997Z,42.81
2023-07-17T11:23:57.578Z,42.98
2023-07-17T11:26:26.829Z,41.96
2023-07-17T11:28:56.058Z,42.12
2023-07-17T11:31:25.932Z,42.04
2023-07-17T11:34:00.955Z,42.22
2023-07-17T11:36:29.477Z,41.25
2023-07-17T11:39:10.448Z,42.30
2023-07-17T11:41:46.292Z,40.86
2023-07-17T11:44:14.101Z,41.45
2023-07-17T11:46:42.315Z,40.88
2023-07-17T11:49:10.806Z,42.00
2023-07-17T11:51:42.249Z,43.28
2023-07-17T11:54:11.543Z,43.02
2023-07-17T11:56:40.281Z,43.21
2023-07-17T11:59:08.332Z,43.22
2023-07-17T12:01:36.204Z,42.62
2023-07-17T12:04:25.520Z,42.99
2023-07-17T12:06:54.802Z,43.17
2023-07-17T12:09:24.251Z,42.79
2023-07-17T12:11:52.194Z,39.05
2023-07-17T12:14:20.124Z,38.63
2023-07-17T12:16:48.169Z,40.23
2023-07-17T12:19:16.257Z,37.73
2023-07-17T12:21:44.617Z,39.13
2023-07-17T12:24:16.130Z,38.89
2023-07-17T12:26:45.423Z,37.68
2023-07-17T12:29:13.361Z,38.45
2023-07-17T12:31:41.320Z,39.06
2023-07-17T12:34:09.917Z,37.44
2023-07-17T12:36:37.750Z,36.62
2023-07-17T12:39:13.210Z,35.55
2023-07-17T12:41:41.049Z,35.04
2023-07-17T12:44:10.784Z,34.80
2023-07-17T12:46:38.724Z,36.38
2023-07-17T12:49:06.676Z,35.54
2023-07-17T12:51:34.504Z,36.94
2023-07-17T12:54:02.912Z,35.80
2023-07-17T12:56:32.362Z,35.53
2023-07-17T12:59:00.605Z,34.62
2023-07-17T13:01:30.288Z,34.96
2023-07-17T13:03:58.356Z,35.63
2023-07-17T13:06:27.387Z,34.21
2023-07-17T13:08:55.317Z,33.66
2023-07-17T13:11:23.134Z,33.19
2023-07-17T13:13:51.791Z,33.01
2023-07-17T13:16:19.763Z,32.87
2023-07-17T13:18:49.071Z,34.67
2023-07-17T13:21:17.274Z,33.79
2023-07-17T13:23:45.449Z,33.16
2023-07-17T13:26:14.128Z,33.13
2023-07-17T13:28:41.982Z,33.37
2023-07-17T13:31:10.707Z,33.16
2023-07-17T13:33:38.966Z,33.90
2023-07-17T13:36:08.330Z,34.75
2023-07-17T13:38:36.182Z,34.36
2023-07-17T13:41:12.473Z,34.89
2023-07-17T13:43:41.320Z,34.38
2023-07-17T13:46:09.177Z,34.42
2023-07-17T13:48:36.996Z,34.56
2023-07-17T13:51:04.972Z,33.67
2023-07-17T13:53:34.142Z,34.18
2023-07-17T13:56:01.971Z,32.92
2023-07-17T13:58:29.878Z,34.78
2023-07-17T14:00:57.736Z,32.55
2023-07-17T14:03:25.733Z,32.97
2023-07-17T14:05:53.714Z,34.22
2023-07-17T14:08:21.662Z,33.07
2023-07-17T14:10:50.844Z,32.79
2023-07-17T14:13:18.773Z,32.62
2023-07-17T14:15:46.644Z,32.19
2023-07-17T14:18:14.522Z,33.44
2023-07-17T14:20:42.617Z,32.93
2023-07-17T14:23:10.969Z,32.92
2023-07-17T14:25:38.797Z,33.81
2023-07-17T14:28:07.968Z,33.57
2023-07-17T14:30:36.075Z,34.10
2023-07-17T14:33:04.581Z,32.85
2023-07-17T14:35:32.579Z,33.42
2023-07-17T14:38:00.448Z,34.66
2023-07-17T14:40:28.309Z,34.72
2023-07-17T14:42:56.194Z,34.59
2023-07-17T14:45:25.562Z,34.82
2023-07-17T14:47:53.498Z,34.28
2023-07-17T14:50:21.519Z,33.88
2023-07-17T14:52:49.423Z,34.58
2023-07-17T14:55:17.319Z,34.70
2023-07-17T14:57:45.203Z,34.72
2023-07-17T15:00:13.832Z,34.69
2023-07-17T15:02:43.104Z,36.06
2023-07-17T15:05:14.450Z,35.18
2023-07-17T15:07:43.949Z,35.79
2023-07-17T15:10:18.180Z,35.05
2023-07-17T15:12:46.502Z,35.52
2023-07-17T15:15:14.413Z,35.50
2023-07-17T15:17:43.817Z,35.70
2023-07-17T15:20:12.348Z,35.32
2023-07-17T15:22:43.955Z,36.39
2023-07-17T15:25:12.180Z,35.56
2023-07-17T15:27:40.105Z,35.39
2023-07-17T15:30:09.773Z,34.94
2023-07-17T15:32:37.688Z,37.83
2023-07-17T15:35:07.802Z,35.57
2023-07-17T15:37:36.887Z,35.28
2023-07-17T15:40:05.558Z,36.14
2023-07-17T15:42:33.446Z,36.15
2023-07-17T15:45:04.024Z,37.04
2023-07-17T15:47:31.946Z,37.03
2023-07-17T15:49:59.819Z,36.51
2023-07-17T15:52:31.351Z,35.74
2023-07-17T15:54:59.267Z,35.66
2023-07-17T15:57:27.294Z,35.12
2023-07-17T15:59:55.665Z,36.48
2023-07-17T16:02:28.342Z,36.41
2023-07-17T16:04:56.898Z,35.70
2023-07-17T16:07:24.774Z,36.45
2023-07-17T16:09:54.129Z,36.79
2023-07-17T16:12:24.343Z,37.45
2023-07-17T16:14:52.732Z,36.76
2023-07-17T16:17:20.630Z,37.75
2023-07-17T16:19:50.721Z,37.27
2023-07-17T16:22:18.702Z,36.83
2023-07-17T16:24:50.400Z,37.01
2023-07-17T16:27:19.562Z,36.96
2023-07-17T16:29:47.870Z,36.46
2023-07-17T16:32:15.679Z,36.50
2023-07-17T16:34:43.521Z,37.20
2023-07-17T16:37:11.574Z,36.86
2023-07-17T16:39:39.567Z,37.51
2023-07-17T16:42:08.598Z,37.06
2023-07-17T16:44:38.327Z,37.71
2023-07-17T16:47:06.891Z,37.95
2023-07-17T16:49:34.705Z,39.13
2023-07-17T16:52:02.882Z,38.51
2023-07-17T16:54:30.712Z,37.93
2023-07-17T16:56:58.605Z,38.43
2023-07-17T16:59:26.629Z,38.77
2023-07-17T17:01:55.901Z,38.04
2023-07-17T17:04:23.820Z,38.97
2023-07-17T17:06:51.704Z,39.27
2023-07-17T17:09:20.358Z,39.73
2023-07-17T17:11:49.043Z,39.98
2023-07-17T17:14:18.171Z,40.34
2023-07-17T17:16:46.293Z,40.49
2023-07-17T17:19:19.858Z,40.55
2023-07-17T17:21:57.583Z,39.95
2023-07-17T17:24:34.461Z,39.46
2023-07-17T17:27:08.892Z,40.15
2023-07-17T17:29:40.051Z,40.41
2023-07-17T17:32:09.065Z,40.48
2023-07-17T17:34:38.534Z,40.55
2023-07-17T17:37:06.735Z,41.48
2023-07-17T17:39:34.586Z,40.48
2023-07-17T17:42:03.826Z,41.50
2023-07-17T17:44:31.693Z,41.34
2023-07-17T17:46:59.714Z,40.97
2023-07-17T17:49:27.753Z,42.34
2023-07-17T17:51:57.036Z,44.56
2023-07-17T17:54:25.006Z,45.07
2023-07-17T17:56:54.822Z,45.38
2023-07-17T17:59:23.084Z,45.61
2023-07-17T18:01:50.935Z,46.31
2023-07-17T18:04:19.209Z,46.31
2023-07-17T18:06:47.178Z,46.71
2023-07-17T18:09:16.965Z,47.01
2023-07-17T18:11:45.084Z,47.18
2023-07-17T18:14:13.078Z,47.08
2023-07-17T18:16:41.266Z,46.59
2023-07-17T18:19:09.516Z,47.61
2023-07-17T18:21:37.850Z,47.96
2023-07-17T18:24:07.030Z,48.12
2023-07-17T18:26:36.248Z,47.26
2023-07-17T18:29:04.609Z,48.23
2023-07-17T18:31:32.450Z,48.35
2023-07-17T18:34:00.478Z,48.84
2023-07-17T18:36:29.818Z,49.06
2023-07-17T18:38:57.692Z,49.30
2023-07-17T18:41:25.506Z,49.23
2023-07-17T18:43:54.738Z,49.84
2023-07-17T18:46:22.745Z,49.28
2023-07-17T18:48:51.116Z,49.20
2023-07-17T18:51:19.273Z,49.91
2023-07-17T18:53:47.453Z,49.98
2023-07-17T18:56:15.760Z,50.02
2023-07-17T18:58:43.619Z,49.66
2023-07-17T19:01:13.013Z,50.02
2023-07-17T19:03:40.970Z,50.44
2023-07-17T19:06:08.902Z,50.79
2023-07-17T19:08:36.736Z,50.20
2023-07-17T19:11:04.629Z,49.54
2023-07-17T19:13:32.738Z,50.34
2023-07-17T19:16:00.751Z,50.36
2023-07-17T19:18:29.950Z,50.43
2023-07-17T19:20:57.763Z,50.36
2023-07-17T19:23:25.705Z,49.08
2023-07-17T19:25:53.693Z,50.84
2023-07-17T19:28:21.515Z,52.18
2023-07-17T19:30:50.954Z,50.73
2023-07-17T19:33:18.908Z,52.02
2023-07-17T19:35:48.105Z,52.47
2023-07-17T19:38:16.060Z,52.30
2023-07-17T19:40:43.935Z,53.54
2023-07-17T19:43:12.085Z,54.62
2023-07-17T19:45:40.001Z,55.02
2023-07-17T19:48:08.328Z,54.52
2023-07-17T19:50:36.467Z,54.54
2023-07-17T19:53:06.697Z,54.67
2023-07-17T19:55:35.919Z,54.36
2023-07-17T19:58:03.832Z,56.36
2023-07-17T20:00:31.718Z,54.95
2023-07-17T20:02:59.806Z,57.33
2023-07-17T20:05:27.731Z,61.34
2023-07-17T20:07:55.699Z,59.66
2023-07-17T20:10:25.044Z,59.23
2023-07-17T20:12:52.840Z,60.78
2023-07-17T20:15:21.261Z,59.66
2023-07-17T20:17:49.191Z,58.88
2023-07-17T20:20:17.189Z,58.22
2023-07-17T20:22:45.111Z,57.07
2023-07-17T20:25:13.264Z,56.51
2023-07-17T20:27:43.075Z,55.54
2023-07-17T20:30:11.743Z,55.61
2023-07-17T20:32:39.719Z,55.20
2023-07-17T20:35:21.279Z,55.35
2023-07-17T20:37:55.805Z,55.85
2023-07-17T20:40:23.604Z,56.53
2023-07-17T20:42:53.209Z,57.07
2023-07-17T20:45:33.186Z,57.17
2023-07-17T20:48:02.219Z,57.86
2023-07-17T20:50:30.363Z,57.23
2023-07-17T20:52:59.147Z,57.22
2023-07-17T20:55:27.087Z,58.26
2023-07-17T20:57:56.256Z,57.53
2023-07-17T21:00:24.228Z,58.12
2023-07-17T21:02:52.043Z,58.57
2023-07-17T21:05:25.187Z,57.85
2023-07-17T21:07:53.183Z,58.62
2023-07-17T21:10:21.210Z,58.33
2023-07-17T21:12:51.239Z,57.84
2023-07-17T21:15:20.763Z,58.01
2023-07-17T21:17:48.628Z,57.05
2023-07-17T21:20:16.651Z,57.40
2023-07-17T21:22:44.484Z,58.46
2023-07-17T21:25:12.464Z,59.90
2023-07-17T21:27:40.447Z,60.25
2023-07-17T21:30:09.706Z,60.39
2023-07-17T21:32:40.032Z,63.78
2023-07-17T21:35:08.477Z,67.44
2023-07-17T21:37:36.295Z,70.40
2023-07-17T21:40:04.431Z,71.81
2023-07-17T21:42:33.051Z,73.90
2023-07-17T21:45:00.876Z,74.08
2023-07-17T21:47:28.857Z,76.28
2023-07-17T21:49:58.244Z,73.11
2023-07-17T21:52:27.347Z,76.28
2023-07-17T21:54:55.341Z,79.97
2023-07-17T21:57:23.203Z,83.08
2023-07-17T21:59:51.239Z,85.44
2023-07-17T22:02:19.143Z,87.61
2023-07-17T22:04:47.033Z,89.33
2023-07-17T22:07:16.201Z,91.29
2023-07-17T22:09:44.156Z,92.21
2023-07-17T22:12:14.843Z,93.28
2023-07-17T22:14:42.917Z,94.80
2023-07-17T22:17:10.813Z,96.46
2023-07-17T22:19:39.101Z,98.96
2023-07-17T22:22:07.872Z,99.47
2023-07-17T22:24:37.000Z,100.00
2023-07-17T22:27:05.169Z,100.00
2023-07-17T22:29:32.978Z,100.00
2023-07-17T22:32:00.762Z,100.00
2023-07-17T22:34:29.145Z,100.00
2023-07-17T22:36:56.955Z,100.00
2023-07-17T22:39:24.769Z,100.00
2023-07-17T22:41:53.899Z,100.00
2023-07-17T22:44:21.686Z,98.36
2023-07-17T22:46:49.641Z,95.90
2023-07-17T22:49:17.580Z,95.09
2023-07-17T22:51:45.446Z,98.68
2023-07-17T22:54:13.286Z,97.40
2023-07-17T22:56:41.097Z,97.45
2023-07-17T22:59:10.183Z,97.72
2023-07-17T23:01:38.059Z,96.00
2023-07-17T23:04:06.267Z,100.00
2023-07-17T23:06:34.199Z,100.00
2023-07-17T23:09:02.410Z,100.00
2023-07-17T23:11:31.102Z,100.00
2023-07-17T23:13:58.950Z,100.00
2023-07-17T23:16:28.197Z,100.00
2023-07-17T23:18:56.045Z,100.00
2023-07-17T23:21:24.206Z,100.00
2023-07-17T23:23:52.220Z,100.00
2023-07-17T23:26:22.582Z,100.00
2023-07-17T23:28:50.991Z,100.00
2023-07-17T23:31:19.802Z,100.00
2023-07-17T23:33:49.314Z,100.00
2023-07-17T23:36:17.318Z,100.00
2023-07-17T23:38:45.408Z,100.00
2023-07-17T23:41:13.196Z,100.00
2023-07-17T23:43:41.007Z,100.00
2023-07-17T23:46:09.094Z,100.00
2023-07-17T23:48:36.931Z,100.00
2023-07-17T23:51:06.122Z,100.00
2023-07-17T23:53:33.924Z,100.00
2023-07-17T23:56:03.420Z,100.00
2023-07-17T23:58:31.262Z,100.00
